createdAt,value
2019-03-19T00:01:02.543Z,13.70
2019-03-19T00:03:34.221Z,17.30
2019-03-19T00:06:04.955Z,20.70
2019-03-19T00:08:36.509Z,14.27
2019-03-19T00:11:07.223Z,13.40
2019-03-19T00:13:37.893Z,18.33
2019-03-19T00:16:08.729Z,11.97
2019-03-19T00:18:39.551Z,12.73
2019-03-19T00:21:10.311Z,16.47
2019-03-19T00:23:41.472Z,17.97
2019-03-19T00:26:13.395Z,13.83
2019-03-19T00:28:43.956Z,18.17
2019-03-19T00:31:14.576Z,10.70
2019-03-19T00:37:44.282Z,15.40
2019-03-19T00:40:17.513Z,17.50
2019-03-19T00:42:50.477Z,16.33
2019-03-19T00:45:21.003Z,15.37
2019-03-19T00:47:57.813Z,15.30
2019-03-19T00:50:29.471Z,15.33
2019-03-19T00:53:02.345Z,19.93
2019-03-19T00:55:40.591Z,19.07
2019-03-19T00:58:06.399Z,13.27
2019-03-19T01:00:36.951Z,17.10
2019-03-19T01:03:07.536Z,17.87
2019-03-19T01:05:38.101Z,16.97
2019-03-19T01:08:08.688Z,17.50
2019-03-19T01:10:43.935Z,15.80
2019-03-19T01:13:15.671Z,24.53
2019-03-19T01:15:51.707Z,19.97
2019-03-19T01:18:22.340Z,17.47
2019-03-19T01:20:55.664Z,15.40
2019-03-19T01:23:26.715Z,17.27
2019-03-19T01:25:59.017Z,16.50
2019-03-19T01:28:29.647Z,15.80
2019-03-19T01:31:01.269Z,20.57
2019-03-19T01:33:32.160Z,18.10
2019-03-19T01:36:03.257Z,18.43
2019-03-19T01:38:34.276Z,16.77
2019-03-19T01:41:07.604Z,18.77
2019-03-19T01:43:38.133Z,17.00
2019-03-19T01:46:09.138Z,15.63
2019-03-19T01:48:43.432Z,15.90
2019-03-19T01:51:14.140Z,16.50
2019-03-19T01:53:47.444Z,14.53
2019-03-19T01:56:18.333Z,13.40
2019-03-19T01:58:49.555Z,15.33
2019-03-19T02:01:22.497Z,15.77
2019-03-19T02:03:53.219Z,17.93
2019-03-19T02:06:23.870Z,10.60
2019-03-19T02:08:54.471Z,16.07
2019-03-19T02:11:27.596Z,13.63
2019-03-19T02:13:58.205Z,16.03
2019-03-19T02:16:31.849Z,13.53
2019-03-19T02:19:03.897Z,15.27
2019-03-19T02:21:34.928Z,17.93
2019-03-19T02:24:05.520Z,14.30
2019-03-19T02:26:39.417Z,13.50
2019-03-19T02:29:10.963Z,15.13
2019-03-19T02:31:41.895Z,13.33
2019-03-19T02:34:15.489Z,18.60
2019-03-19T02:36:48.036Z,15.20
2019-03-19T02:39:18.559Z,10.87
2019-03-19T02:41:49.204Z,15.07
2019-03-19T02:44:19.930Z,18.30
2019-03-19T02:46:50.545Z,13.53
2019-03-19T02:49:21.131Z,14.03
2019-03-19T02:51:54.855Z,12.67
2019-03-19T02:54:27.260Z,13.67
2019-03-19T02:56:57.871Z,20.50
2019-03-19T02:59:28.467Z,14.27
2019-03-19T03:02:00.108Z,18.73
2019-03-19T03:08:13.848Z,15.53
2019-03-19T03:10:44.386Z,17.63
2019-03-19T03:13:14.985Z,15.77
2019-03-19T03:15:45.546Z,13.83
2019-03-19T03:18:16.477Z,21.40
2019-03-19T03:20:52.776Z,15.10
2019-03-19T03:23:27.057Z,16.27
2019-03-19T03:25:59.410Z,14.20
2019-03-19T03:28:33.471Z,15.97
2019-03-19T03:34:57.981Z,15.37
2019-03-19T03:37:28.856Z,17.07
2019-03-19T03:40:01.384Z,15.83
2019-03-19T03:42:32.308Z,17.10
2019-03-19T03:45:03.435Z,23.63
2019-03-19T03:47:44.457Z,13.57
2019-03-19T03:54:23.225Z,19.10
2019-03-19T03:57:01.898Z,24.13
2019-03-19T03:59:26.473Z,17.57
2019-03-19T04:01:57.056Z,15.47
2019-03-19T04:04:32.212Z,18.30
2019-03-19T04:07:05.394Z,14.17
2019-03-19T04:13:19.721Z,14.93
2019-03-19T04:15:50.305Z,16.63
2019-03-19T04:18:23.007Z,17.50
2019-03-19T04:20:53.749Z,11.07
2019-03-19T04:23:24.657Z,17.90
2019-03-19T04:25:55.368Z,18.43
2019-03-19T04:28:25.892Z,16.83
2019-03-19T04:30:56.625Z,14.20
2019-03-19T04:33:27.215Z,19.20
2019-03-19T04:35:57.840Z,14.13
2019-03-19T04:38:30.847Z,15.50
2019-03-19T04:41:01.337Z,16.47
2019-03-19T04:47:26.504Z,16.47
2019-03-19T04:49:57.127Z,13.93
2019-03-19T04:52:31.378Z,17.07
2019-03-19T04:55:12.842Z,17.07
2019-03-19T04:57:45.780Z,17.20
2019-03-19T05:00:16.483Z,16.10
2019-03-19T05:02:47.214Z,16.23
2019-03-19T05:05:17.947Z,14.10
2019-03-19T05:07:48.609Z,17.10
2019-03-19T05:10:19.286Z,16.07
2019-03-19T05:16:20.448Z,14.70
2019-03-19T05:18:57.002Z,15.53
2019-03-19T05:21:28.025Z,13.67
2019-03-19T05:23:59.905Z,17.53
2019-03-19T05:26:30.824Z,18.27
2019-03-19T05:32:56.952Z,16.20
2019-03-19T05:35:31.043Z,18.07
2019-03-19T05:38:05.646Z,12.33
2019-03-19T05:44:14.276Z,12.93
2019-03-19T05:46:46.664Z,11.83
2019-03-19T05:49:23.025Z,18.17
2019-03-19T05:55:35.786Z,18.30
2019-03-19T05:58:09.006Z,15.87
2019-03-19T06:00:39.623Z,15.73
2019-03-19T06:03:13.427Z,31.23
2019-03-19T06:05:44.132Z,19.03
2019-03-19T06:08:14.855Z,19.70
2019-03-19T06:10:52.777Z,25.23
2019-03-19T06:17:30.106Z,20.83
2019-03-19T06:20:01.026Z,21.07
2019-03-19T06:22:35.665Z,18.97
2019-03-19T06:25:09.603Z,25.77
2019-03-19T06:27:40.996Z,29.30
2019-03-19T06:34:09.922Z,11.17
2019-03-19T06:36:43.427Z,18.03
2019-03-19T06:43:08.216Z,14.57
2019-03-19T06:45:38.948Z,16.23
2019-03-19T06:48:11.688Z,18.33
2019-03-19T06:54:32.058Z,20.17
2019-03-19T06:57:10.990Z,43.73
2019-03-19T06:59:44.460Z,15.20
2019-03-19T07:02:15.900Z,10.53
2019-03-19T07:04:48.571Z,12.57
2019-03-19T07:07:24.373Z,11.53
2019-03-19T07:09:55.121Z,16.17
2019-03-19T07:12:25.887Z,9.40
2019-03-19T07:18:49.923Z,13.63
2019-03-19T07:21:22.746Z,16.30
2019-03-19T07:27:35.683Z,16.10
2019-03-19T07:34:01.903Z,13.53
2019-03-19T07:36:35.139Z,13.17
2019-03-19T07:39:09.475Z,17.90
2019-03-19T07:41:43.915Z,15.73
2019-03-19T07:44:14.928Z,10.67
2019-03-19T07:46:46.079Z,17.13
2019-03-19T07:52:50.686Z,14.73
2019-03-19T07:55:23.495Z,13.17
2019-03-19T07:57:54.129Z,9.50
2019-03-19T08:04:24.434Z,16.83
2019-03-19T08:10:39.241Z,16.03
2019-03-19T08:13:10.399Z,16.53
2019-03-19T08:19:23.349Z,17.53
2019-03-19T08:21:54.497Z,15.57
2019-03-19T08:24:30.971Z,15.93
2019-03-19T08:27:03.061Z,12.83
2019-03-19T08:33:28.106Z,20.80
2019-03-19T08:36:09.242Z,13.40
2019-03-19T08:42:34.477Z,13.47
2019-03-19T08:45:07.723Z,16.30
2019-03-19T08:47:38.956Z,13.00
2019-03-19T08:50:14.494Z,12.30
2019-03-19T08:52:45.488Z,13.30
2019-03-19T08:55:16.381Z,12.87
2019-03-19T08:57:49.400Z,13.80
2019-03-19T09:00:22.160Z,19.90
2019-03-19T09:06:35.852Z,22.23
2019-03-19T09:09:12.175Z,13.80
2019-03-19T09:11:42.870Z,14.67
2019-03-19T09:14:13.509Z,14.07
2019-03-19T09:16:44.621Z,14.43
2019-03-19T09:23:09.522Z,16.67
2019-03-19T09:25:40.120Z,14.53
2019-03-19T09:28:14.302Z,15.37
2019-03-19T09:30:46.378Z,18.03
2019-03-19T09:33:17.062Z,12.87
2019-03-19T09:39:33.164Z,13.50
2019-03-19T09:42:03.809Z,11.50
2019-03-19T09:44:36.782Z,15.03
2019-03-19T09:47:07.535Z,9.43
2019-03-19T09:49:38.130Z,18.10
2019-03-19T09:56:06.141Z,9.87
2019-03-19T09:58:36.795Z,13.67
2019-03-19T10:01:07.310Z,8.80
2019-03-19T10:03:39.752Z,12.83
2019-03-19T10:06:14.255Z,9.80
2019-03-19T10:08:44.331Z,10.67
2019-03-19T10:11:16.601Z,11.57
2019-03-19T10:13:49.221Z,7.17
2019-03-19T10:16:19.829Z,8.80
2019-03-19T10:18:54.262Z,10.20
2019-03-19T10:21:28.040Z,11.43
2019-03-19T10:24:02.234Z,11.00
2019-03-19T10:26:37.497Z,10.43
2019-03-19T10:29:15.873Z,9.00
2019-03-19T10:31:46.590Z,12.20
2019-03-19T10:34:25.068Z,10.43
2019-03-19T10:36:59.020Z,8.83
2019-03-19T10:39:33.377Z,11.73
2019-03-19T10:42:07.467Z,11.10
2019-03-19T10:44:44.683Z,9.63
2019-03-19T10:47:22.001Z,8.83
2019-03-19T10:49:56.001Z,7.00
2019-03-19T10:52:26.792Z,8.03
2019-03-19T10:54:58.818Z,9.70
2019-03-19T10:57:29.388Z,9.37
2019-03-19T11:00:11.124Z,8.67
2019-03-19T11:06:31.214Z,7.23
2019-03-19T11:09:04.870Z,10.70
2019-03-19T11:11:39.663Z,11.60
2019-03-19T11:14:12.603Z,8.00
2019-03-19T11:16:46.539Z,7.43
2019-03-19T11:19:20.901Z,6.33
2019-03-19T11:21:51.744Z,7.00
2019-03-19T11:24:22.653Z,10.70
2019-03-19T11:26:53.344Z,5.97
2019-03-19T11:29:25.843Z,7.53
2019-03-19T11:31:57.611Z,5.60
2019-03-19T11:34:28.884Z,8.93
2019-03-19T11:37:02.757Z,4.10
2019-03-19T11:39:33.795Z,8.80
2019-03-19T11:42:04.635Z,7.67
2019-03-19T11:48:29.784Z,8.63
2019-03-19T11:51:01.746Z,16.07
2019-03-19T11:53:32.410Z,10.30
2019-03-19T11:56:03.278Z,10.13
2019-03-19T11:58:35.731Z,8.30
2019-03-19T12:01:08.187Z,9.30
2019-03-19T12:07:21.670Z,6.63
2019-03-19T12:09:54.328Z,9.47
2019-03-19T12:12:26.587Z,6.83
2019-03-19T12:18:39.150Z,9.80
2019-03-19T12:25:09.018Z,5.57
2019-03-19T12:27:45.767Z,8.43
2019-03-19T12:30:22.287Z,6.70
2019-03-19T12:32:53.908Z,11.00
2019-03-19T12:35:25.745Z,7.73
2019-03-19T12:37:59.528Z,8.33
2019-03-19T12:40:37.146Z,7.10
2019-03-19T12:43:06.178Z,7.57
2019-03-19T12:45:38.212Z,7.97
2019-03-19T12:48:12.987Z,7.60
2019-03-19T12:50:43.701Z,7.87
2019-03-19T12:53:14.427Z,8.57
2019-03-19T12:55:48.327Z,6.77
2019-03-19T12:58:19.090Z,8.47
2019-03-19T13:00:50.159Z,5.73
2019-03-19T13:03:22.895Z,5.23
2019-03-19T13:05:53.998Z,6.43
2019-03-19T13:08:26.285Z,7.37
2019-03-19T13:11:00.081Z,10.40
2019-03-19T13:13:31.236Z,11.30
2019-03-19T13:16:01.977Z,7.97
2019-03-19T13:18:32.600Z,7.60
2019-03-19T13:21:03.245Z,14.07
2019-03-19T13:23:34.150Z,7.63
2019-03-19T13:29:47.286Z,9.40
2019-03-19T13:32:23.758Z,9.93
2019-03-19T13:34:54.553Z,8.73
2019-03-19T13:37:31.234Z,10.47
2019-03-19T13:40:04.137Z,5.97
2019-03-19T13:42:34.984Z,4.53
2019-03-19T13:45:08.866Z,7.97
2019-03-19T13:47:41.006Z,10.23
2019-03-19T13:50:13.043Z,8.80
2019-03-19T13:52:46.461Z,7.03
2019-03-19T13:55:17.217Z,11.97
2019-03-19T13:57:48.142Z,10.33
2019-03-19T14:00:19.690Z,7.77
2019-03-19T14:02:51.622Z,8.87
2019-03-19T14:05:22.933Z,7.57
2019-03-19T14:07:53.761Z,8.70
2019-03-19T14:10:33.268Z,11.83
2019-03-19T14:13:04.952Z,8.30
2019-03-19T14:15:37.203Z,6.00
2019-03-19T14:18:09.420Z,9.53
2019-03-19T14:20:41.243Z,6.83
2019-03-19T14:23:12.613Z,8.63
2019-03-19T14:25:43.467Z,6.07
2019-03-19T14:32:11.616Z,6.70
2019-03-19T14:34:44.720Z,8.07
2019-03-19T14:37:17.603Z,9.30
2019-03-19T14:39:51.133Z,8.30
2019-03-19T14:42:24.365Z,9.43
2019-03-19T14:44:54.941Z,7.03
2019-03-19T14:47:28.137Z,11.73
2019-03-19T14:49:58.123Z,11.33
2019-03-19T14:52:32.210Z,10.70
2019-03-19T14:55:04.499Z,11.70
2019-03-19T14:57:35.140Z,7.87
2019-03-19T15:00:08.062Z,6.53
2019-03-19T15:06:38.854Z,8.97
2019-03-19T15:09:14.842Z,9.83
2019-03-19T15:11:47.224Z,9.90
2019-03-19T15:14:17.899Z,7.50
2019-03-19T15:16:48.544Z,10.37
2019-03-19T15:19:19.345Z,9.00
2019-03-19T15:21:50.977Z,11.33
2019-03-19T15:24:21.562Z,8.43
2019-03-19T15:26:54.625Z,11.23
2019-03-19T15:29:25.220Z,7.53
2019-03-19T15:31:57.596Z,10.50
2019-03-19T15:34:29.821Z,7.00
2019-03-19T15:37:03.650Z,9.67
2019-03-19T15:39:37.113Z,11.67
2019-03-19T15:42:11.172Z,9.03
2019-03-19T15:44:41.909Z,10.60
2019-03-19T15:47:12.447Z,9.17
2019-03-19T15:49:43.136Z,16.27
2019-03-19T15:52:17.592Z,7.50
2019-03-19T15:54:48.442Z,7.77
2019-03-19T15:57:21.199Z,11.87
2019-03-19T15:59:51.736Z,7.97
2019-03-19T16:02:22.739Z,12.57
2019-03-19T16:04:53.358Z,14.73
2019-03-19T16:07:24.006Z,7.53
2019-03-19T16:09:54.641Z,12.70
2019-03-19T16:12:28.327Z,8.50
2019-03-19T16:15:02.941Z,11.43
2019-03-19T16:21:17.953Z,11.13
2019-03-19T16:23:48.461Z,10.63
2019-03-19T16:26:19.665Z,5.97
2019-03-19T16:28:50.245Z,10.03
2019-03-19T16:35:22.717Z,12.10
2019-03-19T16:37:55.442Z,10.40
2019-03-19T16:43:56.432Z,10.70
2019-03-19T16:46:32.133Z,11.83
2019-03-19T16:52:47.055Z,8.83
2019-03-19T16:55:17.799Z,9.57
2019-03-19T16:57:48.584Z,8.90
2019-03-19T17:00:19.333Z,13.03
2019-03-19T17:02:50.223Z,10.50
2019-03-19T17:09:06.224Z,16.90
2019-03-19T17:15:38.563Z,16.33
2019-03-19T17:18:09.252Z,14.87
2019-03-19T17:20:39.888Z,20.00
2019-03-19T17:23:10.491Z,15.77
2019-03-19T17:25:45.572Z,16.60
2019-03-19T17:28:22.785Z,18.27
2019-03-19T17:30:52.127Z,14.60
2019-03-19T17:33:24.151Z,14.13
2019-03-19T17:35:55.894Z,16.07
2019-03-19T17:38:28.506Z,11.47
2019-03-19T17:41:01.937Z,13.07
2019-03-19T17:43:32.949Z,13.10
2019-03-19T17:46:03.815Z,10.93
2019-03-19T17:48:34.396Z,11.70
2019-03-19T17:51:05.711Z,12.53
2019-03-19T17:53:40.605Z,11.13
2019-03-19T18:00:09.169Z,13.90
2019-03-19T18:02:40.968Z,12.33
2019-03-19T18:05:16.075Z,11.17
2019-03-19T18:07:47.500Z,12.63
2019-03-19T18:10:18.550Z,11.53
2019-03-19T18:12:50.895Z,12.40
2019-03-19T18:15:21.557Z,11.47
2019-03-19T18:17:55.278Z,12.07
2019-03-19T18:20:25.967Z,11.30
2019-03-19T18:22:56.543Z,9.93
2019-03-19T18:25:33.317Z,13.10
2019-03-19T18:28:06.090Z,9.17
2019-03-19T18:30:39.722Z,16.90
2019-03-19T18:36:54.302Z,21.27
2019-03-19T18:39:25.962Z,14.50
2019-03-19T18:41:56.572Z,17.77
2019-03-19T18:44:27.214Z,14.47
2019-03-19T18:50:52.010Z,17.23
2019-03-19T18:53:25.955Z,16.00
2019-03-19T18:55:56.539Z,18.10
2019-03-19T18:58:27.220Z,18.40
2019-03-19T19:00:57.911Z,22.90
2019-03-19T19:07:23.796Z,59.30
2019-03-19T19:13:37.509Z,42.57
2019-03-19T19:19:51.367Z,18.57
2019-03-19T19:25:52.852Z,21.43
2019-03-19T19:32:19.029Z,21.50
2019-03-19T19:34:52.082Z,23.90
2019-03-19T19:37:23.875Z,24.00
2019-03-19T19:39:54.349Z,21.07
2019-03-19T19:42:26.439Z,24.17
2019-03-19T19:48:39.100Z,22.03
2019-03-19T19:51:09.784Z,28.77
2019-03-19T19:53:40.404Z,15.37
2019-03-19T19:56:12.550Z,19.73
2019-03-19T19:58:43.214Z,14.27
2019-03-19T20:01:13.823Z,14.40
2019-03-19T20:03:46.877Z,16.90
2019-03-19T20:06:17.448Z,20.10
2019-03-19T20:08:56.469Z,20.23
2019-03-19T20:15:13.916Z,17.67
2019-03-19T20:17:45.922Z,25.67
2019-03-19T20:24:03.938Z,31.70
2019-03-19T20:30:35.318Z,18.90
2019-03-19T20:33:06.170Z,22.57
2019-03-19T20:35:39.021Z,23.83
2019-03-19T20:38:13.887Z,22.20
2019-03-19T20:40:47.861Z,17.80
2019-03-19T20:47:04.921Z,35.47
2019-03-19T20:49:35.709Z,29.90
2019-03-19T20:52:06.679Z,46.47
2019-03-19T20:58:19.817Z,47.50
2019-03-19T21:00:53.639Z,29.60
2019-03-19T21:03:35.257Z,22.07
2019-03-19T21:05:58.175Z,21.57
2019-03-19T21:08:31.376Z,24.60
2019-03-19T21:11:01.909Z,24.83
2019-03-19T21:13:37.515Z,24.67
2019-03-19T21:16:12.459Z,26.87
2019-03-19T21:18:43.185Z,23.57
2019-03-19T21:21:13.794Z,22.40
2019-03-19T21:23:44.421Z,21.30
2019-03-19T21:26:16.309Z,24.00
2019-03-19T21:28:46.865Z,23.33
2019-03-19T21:31:17.487Z,21.40
2019-03-19T21:33:51.387Z,20.50
2019-03-19T21:36:22.321Z,30.70
2019-03-19T21:42:57.041Z,28.13
2019-03-19T21:45:27.842Z,36.97
2019-03-19T21:48:00.052Z,39.43
2019-03-19T21:50:30.677Z,40.80
2019-03-19T21:53:05.248Z,48.57
2019-03-19T21:55:35.983Z,47.00
2019-03-19T21:58:07.867Z,43.27
2019-03-19T22:00:38.493Z,35.57
2019-03-19T22:03:11.908Z,41.40
2019-03-19T22:05:45.547Z,43.63
2019-03-19T22:08:22.748Z,37.53
2019-03-19T22:10:54.722Z,37.43
2019-03-19T22:16:57.206Z,29.10
2019-03-19T22:19:27.827Z,27.70
2019-03-19T22:21:58.467Z,23.60
2019-03-19T22:28:17.636Z,20.13
2019-03-19T22:30:48.139Z,21.07
2019-03-19T22:37:06.128Z,20.77
2019-03-19T22:39:36.964Z,15.80
2019-03-19T22:42:10.604Z,17.40
2019-03-19T22:44:47.403Z,21.17
2019-03-19T22:47:19.488Z,20.37
2019-03-19T22:49:50.177Z,17.53
2019-03-19T22:52:20.844Z,25.70
2019-03-19T22:54:51.856Z,31.60
2019-03-19T22:57:25.452Z,25.63
2019-03-19T23:03:43.408Z,34.10
2019-03-19T23:06:14.164Z,26.57
2019-03-19T23:08:50.072Z,29.70
2019-03-19T23:11:20.595Z,35.07
2019-03-19T23:17:34.724Z,36.23
2019-03-19T23:20:06.885Z,38.30
2019-03-19T23:22:37.691Z,40.27
2019-03-19T23:28:54.823Z,43.70
2019-03-19T23:34:59.652Z,34.10
2019-03-19T23:37:30.184Z,39.30
2019-03-19T23:40:02.328Z,33.87
2019-03-19T23:42:36.837Z,29.17
2019-03-19T23:45:08.111Z,30.07
2019-03-19T23:47:39.760Z,38.73
2019-03-19T23:50:12.247Z,30.23
2019-03-19T23:52:50.512Z,29.30
2019-03-19T23:55:25.543Z,24.10
2019-03-19T23:57:56.211Z,24.53
